Time;durP1;ratioP1;P1;durP2;ratioP2;P2;SDS_P1;SDS_P2;PMS_P1;PMS_P2;Temp;Humidity;BMP_temperature;BMP_pressure;BME280_temperature;BME280_humidity;BME280_pressure;Samples;Min_cycle;Max_cycle;Signal;HPM_P1;HPM_P2
2021/03/30 00:02:11;;;;;;;33.33;16.77;;;9.10;87.70;;;;;;5033794;28;20252;-83
2021/03/30 00:04:37;;;;;;;27.47;15.33;;;9.10;87.70;;;;;;5015701;28;20672;-83
2021/03/30 00:07:04;;;;;;;37.73;16.77;;;9.20;87.70;;;;;;5033749;28;20527;-83
2021/03/30 00:09:30;;;;;;;36.00;17.57;;;9.30;87.80;;;;;;5015742;28;20235;-83
2021/03/30 00:11:56;;;;;;;36.50;17.30;;;9.30;87.90;;;;;;5033375;28;20660;-83
2021/03/30 00:14:25;;;;;;;36.73;17.20;;;9.30;88.30;;;;;;5033411;28;20686;-83
2021/03/30 00:16:51;;;;;;;35.07;16.17;;;9.50;88.00;;;;;;5033837;28;20202;-83
2021/03/30 00:19:17;;;;;;;30.10;15.23;;;9.60;87.40;;;;;;5033219;28;20268;-83
2021/03/30 00:21:50;;;;;;;30.43;14.83;;;9.60;87.00;;;;;;5033299;28;20168;-83
2021/03/30 00:24:16;;;;;;;31.93;14.03;;;9.60;86.80;;;;;;5033367;28;20193;-83
2021/03/30 00:26:52;;;;;;;30.23;14.37;;;9.50;86.70;;;;;;5015368;28;20197;-83
2021/03/30 00:29:25;;;;;;;26.40;13.87;;;9.50;86.50;;;;;;5033261;28;20168;-83
2021/03/30 00:32:00;;;;;;;25.40;13.67;;;9.50;86.20;;;;;;5015425;28;20172;-83
2021/03/30 00:34:39;;;;;;;29.30;13.37;;;9.40;86.20;;;;;;5033455;28;20191;-83
2021/03/30 00:37:11;;;;;;;29.80;13.07;;;9.30;86.30;;;;;;5033192;28;20551;-83
2021/03/30 00:39:47;;;;;;;26.90;12.33;;;9.30;86.20;;;;;;5033565;28;20256;-83
2021/03/30 00:42:24;;;;;;;25.33;12.70;;;9.30;86.10;;;;;;5033445;28;20543;-83
2021/03/30 00:44:57;;;;;;;28.27;12.13;;;9.30;86.00;;;;;;5015214;28;20250;-84
2021/03/30 00:47:34;;;;;;;23.27;11.90;;;9.20;85.60;;;;;;5033101;28;20183;-83
2021/03/30 00:50:06;;;;;;;24.00;11.40;;;9.20;85.40;;;;;;5017710;28;20267;-83
2021/03/30 00:52:41;;;;;;;26.00;11.93;;;9.10;85.30;;;;;;5037017;28;20200;-83
2021/03/30 00:55:14;;;;;;;27.27;11.60;;;9.10;85.10;;;;;;5037461;28;20549;-84
2021/03/30 00:57:46;;;;;;;25.57;12.67;;;9.00;85.10;;;;;;5037265;28;20199;-83
2021/03/30 01:00:19;;;;;;;29.43;11.27;;;9.00;84.90;;;;;;5036952;28;20165;-83
2021/03/30 01:02:54;;;;;;;25.83;10.40;;;9.00;84.40;;;;;;5019030;28;20685;-83
2021/03/30 01:05:26;;;;;;;28.07;10.60;;;9.00;84.30;;;;;;5036968;28;20250;-83
2021/03/30 01:08:12;;;;;;;20.57;9.90;;;9.00;84.10;;;;;;5018983;28;20180;-84
2021/03/30 01:11:05;;;;;;;27.97;9.77;;;9.10;83.70;;;;;;5036803;28;20204;-83
2021/03/30 01:13:59;;;;;;;23.03;9.43;;;9.20;83.20;;;;;;5036614;28;20200;-83
2021/03/30 01:17:02;;;;;;;26.93;10.07;;;9.30;82.70;;;;;;5036582;28;20783;-83
2021/03/30 01:19:58;;;;;;;23.37;7.97;;;9.30;82.70;;;;;;5018676;28;20211;-83
2021/03/30 01:22:50;;;;;;;24.63;11.10;;;9.20;82.90;;;;;;5036822;28;20165;-83
2021/03/30 01:25:18;;;;;;;22.73;10.17;;;9.20;83.30;;;;;;5036493;28;20279;-83
2021/03/30 01:28:17;;;;;;;30.47;10.53;;;9.10;83.40;;;;;;5018784;28;20188;-83
2021/03/30 01:30:47;;;;;;;17.97;8.53;;;9.10;83.50;;;;;;5036490;28;20181;-83
2021/03/30 01:33:28;;;;;;;27.60;9.07;;;9.20;82.90;;;;;;5036098;28;20208;-83
2021/03/30 01:36:02;;;;;;;22.00;9.70;;;9.20;82.70;;;;;;5036149;28;20216;-83
2021/03/30 01:38:29;;;;;;;26.40;9.20;;;9.30;81.80;;;;;;5036196;28;20183;-82
2021/03/30 01:41:05;;;;;;;19.77;8.70;;;9.20;81.60;;;;;;5036179;28;20181;-83
2021/03/30 01:43:38;;;;;;;23.30;8.63;;;9.30;80.90;;;;;;5036297;28;20184;-83
2021/03/30 01:46:04;;;;;;;27.83;9.43;;;9.30;80.90;;;;;;5018220;28;20294;-83
2021/03/30 01:48:37;;;;;;;22.17;8.80;;;9.30;81.10;;;;;;5036633;28;20176;-83
2021/03/30 01:51:07;;;;;;;20.60;8.13;;;9.20;81.70;;;;;;5036643;28;20207;-83
2021/03/30 01:53:41;;;;;;;15.43;8.17;;;9.20;82.10;;;;;;5035818;28;20612;-83
2021/03/30 01:56:14;;;;;;;21.37;9.10;;;9.20;82.00;;;;;;5035898;28;20232;-83
2021/03/30 01:58:42;;;;;;;16.03;7.63;;;9.10;82.30;;;;;;5035752;28;20168;-83
2021/03/30 02:01:17;;;;;;;22.43;8.90;;;9.20;81.60;;;;;;5034637;28;20173;-83
2021/03/30 02:03:51;;;;;;;19.03;9.00;;;9.20;81.20;;;;;;5035861;28;20608;-83
2021/03/30 02:06:19;;;;;;;19.60;8.20;;;9.20;81.00;;;;;;5035651;28;20200;-83
2021/03/30 02:08:54;;;;;;;17.90;8.00;;;9.20;81.00;;;;;;5035723;28;20643;-83
2021/03/30 02:11:34;;;;;;;25.90;7.70;;;9.20;80.90;;;;;;5035635;28;20164;-83
2021/03/30 02:14:05;;;;;;;20.90;7.87;;;9.10;80.80;;;;;;5017772;28;20285;-83
2021/03/30 02:16:49;;;;;;;24.20;8.23;;;9.10;80.60;;;;;;5035347;28;20566;-83
2021/03/30 02:19:49;;;;;;;16.13;6.97;;;9.10;80.40;;;;;;5035467;28;20208;-83
2021/03/30 02:22:32;;;;;;;23.27;8.73;;;9.10;80.10;;;;;;5017505;28;20184;-83
2021/03/30 02:24:59;;;;;;;18.53;8.03;;;9.20;79.80;;;;;;5035272;28;20200;-83
2021/03/30 02:27:35;;;;;;;19.27;8.00;;;9.10;79.80;;;;;;5035335;28;20192;-83
2021/03/30 02:30:12;;;;;;;19.93;9.33;;;9.00;80.00;;;;;;5017347;28;20639;-83
2021/03/30 02:32:44;;;;;;;21.87;7.63;;;9.10;79.90;;;;;;5035150;28;20199;-83
2021/03/30 02:35:16;;;;;;;26.93;7.93;;;9.00;79.90;;;;;;5034966;28;20193;-83
2021/03/30 02:37:46;;;;;;;20.47;7.70;;;9.00;79.90;;;;;;5017347;28;20196;-83
2021/03/30 02:40:20;;;;;;;21.33;8.07;;;8.90;80.10;;;;;;5017258;28;20231;-83
2021/03/30 02:42:49;;;;;;;14.73;7.80;;;8.90;80.30;;;;;;5017137;28;20173;-83
2021/03/30 02:45:29;;;;;;;21.03;8.23;;;8.80;80.20;;;;;;5016846;28;20748;-83
2021/03/30 02:48:04;;;;;;;21.53;8.30;;;8.90;80.10;;;;;;5017864;28;20579;-83
2021/03/30 02:50:38;;;;;;;14.67;7.60;;;8.80;79.90;;;;;;5017044;28;20183;-83
2021/03/30 02:53:10;;;;;;;17.83;7.57;;;8.80;79.90;;;;;;5034729;28;20197;-83
2021/03/30 02:55:44;;;;;;;15.90;7.87;;;8.80;79.70;;;;;;5034752;28;20196;-83
2021/03/30 02:58:24;;;;;;;16.70;7.27;;;8.80;79.70;;;;;;5016943;28;20709;-83
2021/03/30 03:00:57;;;;;;;18.70;7.40;;;8.80;79.40;;;;;;5017263;28;20559;-83
2021/03/30 03:03:25;;;;;;;13.03;6.67;;;8.80;79.40;;;;;;5034641;28;20575;-83
2021/03/30 03:05:57;;;;;;;14.73;8.13;;;8.80;79.20;;;;;;5016733;28;20287;-83
2021/03/30 03:08:29;;;;;;;25.00;8.00;;;8.70;79.20;;;;;;5016560;28;20331;-83
2021/03/30 03:11:00;;;;;;;19.00;7.53;;;8.70;79.30;;;;;;5016814;28;20172;-83
2021/03/30 03:13:37;;;;;;;16.40;6.57;;;8.70;79.30;;;;;;5033964;28;20197;-83
2021/03/30 03:16:09;;;;;;;13.07;6.80;;;8.60;79.30;;;;;;5034302;28;20329;-83
2021/03/30 03:18:40;;;;;;;19.20;7.87;;;8.60;79.30;;;;;;5016546;28;20693;-83
2021/03/30 03:21:15;;;;;;;25.47;7.60;;;8.60;79.30;;;;;;5016618;28;20230;-83
2021/03/30 03:23:48;;;;;;;15.07;6.70;;;8.60;79.20;;;;;;5034683;28;20155;-83
2021/03/30 03:26:17;;;;;;;15.77;6.60;;;8.60;78.90;;;;;;5034043;28;20215;-83
2021/03/30 03:28:52;;;;;;;22.37;7.87;;;8.60;78.70;;;;;;5034136;28;20179;-83
2021/03/30 03:31:30;;;;;;;16.27;6.83;;;8.60;78.80;;;;;;5034037;28;20182;-83
2021/03/30 03:34:05;;;;;;;18.33;7.27;;;8.60;78.70;;;;;;5033918;28;20691;-83
2021/03/30 03:36:41;;;;;;;20.63;7.60;;;8.60;78.40;;;;;;5033835;28;20234;-83
2021/03/30 03:39:18;;;;;;;21.73;7.43;;;8.70;78.10;;;;;;5033991;28;20176;-83
2021/03/30 03:41:50;;;;;;;24.17;7.53;;;8.60;78.20;;;;;;5033740;28;20171;-83
2021/03/30 03:44:27;;;;;;;21.53;7.73;;;8.60;78.30;;;;;;5016117;28;20196;-83
2021/03/30 03:47:03;;;;;;;14.67;6.73;;;8.60;78.50;;;;;;5016251;28;20245;-83
2021/03/30 03:49:39;;;;;;;14.93;7.57;;;8.50;78.40;;;;;;5033729;28;20203;-83
2021/03/30 03:52:13;;;;;;;20.93;8.47;;;8.50;78.70;;;;;;5015913;28;20700;-83
2021/03/30 03:54:49;;;;;;;24.77;7.70;;;8.40;78.80;;;;;;5033666;28;20615;-83
2021/03/30 03:57:34;;;;;;;23.43;7.90;;;8.40;78.90;;;;;;5015967;28;20185;-83
2021/03/30 04:00:07;;;;;;;19.67;7.60;;;8.40;78.90;;;;;;5033595;28;20182;-83
2021/03/30 04:02:54;;;;;;;18.07;7.63;;;8.40;78.90;;;;;;5033510;28;20218;-83
2021/03/30 04:05:34;;;;;;;19.47;7.17;;;8.30;79.10;;;;;;5033456;28;20698;-83
2021/03/30 04:08:14;;;;;;;18.13;7.67;;;8.30;78.80;;;;;;5033652;28;20250;-83
2021/03/30 04:10:57;;;;;;;18.33;8.20;;;8.30;78.90;;;;;;5015691;28;20186;-84
2021/03/30 04:13:34;;;;;;;23.40;7.97;;;8.30;79.00;;;;;;5015976;28;20211;-83
2021/03/30 04:16:08;;;;;;;15.60;6.97;;;8.30;79.00;;;;;;5033346;28;20202;-83
2021/03/30 04:18:40;;;;;;;18.37;7.77;;;8.30;78.80;;;;;;5033460;28;20184;-83
2021/03/30 04:21:32;;;;;;;19.80;7.60;;;8.20;78.80;;;;;;5016074;28;20173;-83
2021/03/30 04:24:05;;;;;;;20.27;7.80;;;8.20;79.30;;;;;;5032565;28;20180;-83
2021/03/30 04:26:37;;;;;;;14.90;6.73;;;8.10;79.30;;;;;;5033881;28;20602;-83
2021/03/30 04:29:11;;;;;;;27.60;7.47;;;8.10;79.40;;;;;;5033109;28;20191;-83
2021/03/30 04:31:49;;;;;;;18.17;7.13;;;8.10;79.40;;;;;;5015429;28;20188;-83
2021/03/30 04:34:23;;;;;;;22.23;8.43;;;8.10;79.30;;;;;;5033080;28;20208;-83
2021/03/30 04:36:54;;;;;;;20.03;7.20;;;8.00;79.30;;;;;;5032955;28;20196;-83
2021/03/30 04:39:31;;;;;;;16.93;7.90;;;8.00;79.40;;;;;;5015512;28;20255;-83
2021/03/30 04:42:03;;;;;;;20.47;7.80;;;8.00;79.50;;;;;;5033605;28;20180;-83
2021/03/30 04:44:42;;;;;;;25.60;7.63;;;8.00;79.50;;;;;;5032991;28;20219;-83
2021/03/30 04:47:08;;;;;;;15.77;7.10;;;8.00;79.60;;;;;;5033326;28;20185;-83
2021/03/30 04:49:39;;;;;;;25.17;7.10;;;8.00;79.60;;;;;;5015280;28;20250;-84
2021/03/30 04:52:10;;;;;;;21.77;7.83;;;7.90;79.80;;;;;;5015168;28;20201;-83
2021/03/30 04:54:41;;;;;;;24.63;8.80;;;7.90;80.00;;;;;;5033166;28;20183;-84
2021/03/30 04:57:07;;;;;;;16.80;6.93;;;7.90;80.00;;;;;;5032934;28;20210;-83
2021/03/30 04:59:42;;;;;;;20.97;7.47;;;7.80;80.10;;;;;;5032850;28;20181;-83
2021/03/30 05:02:17;;;;;;;16.93;7.90;;;7.80;80.20;;;;;;5032922;28;20652;-83
2021/03/30 05:04:51;;;;;;;21.80;8.93;;;7.80;80.30;;;;;;5032863;28;20179;-83
2021/03/30 05:07:24;;;;;;;25.17;8.53;;;7.80;80.50;;;;;;5032791;28;20581;-84
2021/03/30 05:09:51;;;;;;;24.17;8.90;;;7.70;80.90;;;;;;5033090;28;20191;-83
2021/03/30 05:12:24;;;;;;;23.57;9.73;;;7.70;81.10;;;;;;5032675;28;20228;-83
2021/03/30 05:14:56;;;;;;;20.80;10.30;;;7.80;81.20;;;;;;5032822;28;20196;-83
2021/03/30 05:17:29;;;;;;;21.63;9.43;;;7.80;81.10;;;;;;5032730;28;20710;-83
2021/03/30 05:20:04;;;;;;;19.47;9.10;;;7.80;80.90;;;;;;5015027;28;20184;-83
2021/03/30 05:22:35;;;;;;;23.93;9.27;;;7.80;80.90;;;;;;5014954;28;20222;-83
2021/03/30 05:25:13;;;;;;;23.53;9.37;;;7.90;81.00;;;;;;5032622;28;20257;-83
2021/03/30 05:27:50;;;;;;;23.53;9.57;;;7.90;80.90;;;;;;5014890;28;20180;-83
2021/03/30 05:30:21;;;;;;;20.37;9.63;;;8.00;80.90;;;;;;5032554;28;20641;-83
2021/03/30 05:32:57;;;;;;;18.33;10.23;;;8.00;80.80;;;;;;5032677;28;20211;-83
2021/03/30 05:35:22;;;;;;;22.97;11.17;;;8.10;80.50;;;;;;5016383;28;20203;-83
2021/03/30 05:37:54;;;;;;;24.93;11.10;;;8.10;80.50;;;;;;5036224;28;20551;-83
2021/03/30 05:40:21;;;;;;;21.27;10.37;;;8.20;80.40;;;;;;5036645;28;20165;-83
2021/03/30 05:42:54;;;;;;;31.77;11.30;;;8.20;80.70;;;;;;5018352;28;20679;-83
2021/03/30 05:45:24;;;;;;;19.87;11.13;;;8.20;80.60;;;;;;5035966;28;20246;-83
2021/03/30 05:48:01;;;;;;;29.70;11.93;;;8.30;80.70;;;;;;5036319;28;20181;-83
2021/03/30 05:50:34;;;;;;;18.70;10.97;;;8.30;80.60;;;;;;5036302;28;20182;-83
2021/03/30 05:53:20;;;;;;;23.17;11.33;;;8.30;80.80;;;;;;5036037;28;20700;-83
2021/03/30 05:56:01;;;;;;;22.20;11.47;;;8.40;81.00;;;;;;5035823;28;20191;-83
2021/03/30 05:58:39;;;;;;;20.93;11.37;;;8.40;81.20;;;;;;5035879;28;20180;-83
2021/03/30 06:01:14;;;;;;;26.50;11.47;;;8.50;81.00;;;;;;5035791;28;20537;-83
2021/03/30 06:03:50;;;;;;;21.40;11.30;;;8.50;80.90;;;;;;5035791;28;20172;-83
2021/03/30 06:06:19;;;;;;;25.00;12.47;;;8.60;81.00;;;;;;5035675;28;20196;-83
2021/03/30 06:08:53;;;;;;;23.03;12.20;;;8.70;81.10;;;;;;5017914;28;20276;-83
2021/03/30 06:11:24;;;;;;;22.57;12.37;;;8.70;81.00;;;;;;5035869;28;20168;-83
2021/03/30 06:14:02;;;;;;;28.83;12.13;;;8.70;81.30;;;;;;5035431;28;20579;-83
2021/03/30 06:16:42;;;;;;;23.53;12.30;;;8.80;80.80;;;;;;5035464;28;20656;-83
2021/03/30 06:19:16;;;;;;;27.50;12.43;;;9.00;80.40;;;;;;5017656;28;20230;-83
2021/03/30 06:21:57;;;;;;;22.93;11.07;;;9.00;80.40;;;;;;5035577;28;20169;-83
2021/03/30 06:24:34;;;;;;;26.87;11.03;;;9.00;80.10;;;;;;5035441;28;20656;-83
2021/03/30 06:27:03;;;;;;;25.53;11.83;;;9.10;79.80;;;;;;5035440;28;20211;-83
2021/03/30 06:29:41;;;;;;;25.73;12.63;;;9.20;80.10;;;;;;5017588;28;20633;-83
2021/03/30 06:32:16;;;;;;;19.17;11.13;;;9.20;79.90;;;;;;5035085;28;20287;-83
2021/03/30 06:34:44;;;;;;;24.47;11.63;;;9.30;79.40;;;;;;5035155;28;20620;-83
2021/03/30 06:37:36;;;;;;;23.30;12.23;;;9.30;79.60;;;;;;5035252;28;20226;-83
2021/03/30 06:40:28;;;;;;;26.73;12.20;;;9.30;79.60;;;;;;5017214;28;20224;-83
2021/03/30 06:43:13;;;;;;;23.20;12.30;;;9.40;79.50;;;;;;5035036;28;20259;-83
2021/03/30 06:45:45;;;;;;;24.27;12.50;;;9.50;79.40;;;;;;5017006;28;20208;-83
2021/03/30 06:48:16;;;;;;;25.73;12.53;;;9.50;79.60;;;;;;5034411;28;20181;-83
2021/03/30 06:50:42;;;;;;;28.87;12.33;;;9.60;80.00;;;;;;5034745;28;20208;-83
2021/03/30 06:53:17;;;;;;;23.67;12.03;;;9.70;79.80;;;;;;5016891;28;20232;-83
2021/03/30 06:55:56;;;;;;;20.93;11.50;;;9.70;79.90;;;;;;5017463;28;20192;-83
2021/03/30 06:58:30;;;;;;;31.13;12.60;;;9.80;79.90;;;;;;5016907;28;20222;-83
2021/03/30 07:01:00;;;;;;;28.33;12.80;;;9.80;79.90;;;;;;5016787;28;20182;-83
2021/03/30 07:03:35;;;;;;;23.53;12.33;;;9.80;80.00;;;;;;5034831;28;20154;-83
2021/03/30 07:06:13;;;;;;;27.40;11.70;;;9.90;79.70;;;;;;5034533;28;20250;-83
2021/03/30 07:08:48;;;;;;;28.43;12.67;;;10.00;79.80;;;;;;5034737;28;20161;-83
2021/03/30 07:11:22;;;;;;;21.27;12.47;;;10.10;80.00;;;;;;5016618;28;20176;-83
2021/03/30 07:13:52;;;;;;;27.13;13.03;;;10.20;79.90;;;;;;5034271;28;20188;-83
2021/03/30 07:16:32;;;;;;;25.53;12.80;;;10.20;79.70;;;;;;5034228;28;20208;-83
2021/03/30 07:19:04;;;;;;;21.33;11.33;;;10.30;80.30;;;;;;5016490;28;20649;-82
2021/03/30 07:21:49;;;;;;;29.07;12.00;;;10.50;79.50;;;;;;5034260;28;20192;-82
2021/03/30 07:24:30;;;;;;;20.87;12.00;;;10.40;79.20;;;;;;5034504;28;20248;-83
2021/03/30 07:27:05;;;;;;;24.77;11.30;;;10.50;79.20;;;;;;5034470;28;20193;-83
2021/03/30 07:29:44;;;;;;;35.27;10.93;;;10.60;79.70;;;;;;5016188;28;20254;-83
2021/03/30 07:32:22;;;;;;;25.43;11.77;;;10.70;79.40;;;;;;5016328;28;20239;-83
2021/03/30 07:35:12;;;;;;;26.27;10.97;;;10.80;79.40;;;;;;5033903;28;20180;-83
2021/03/30 07:38:18;;;;;;;25.77;11.00;;;10.90;78.70;;;;;;5033999;28;20169;-83
2021/03/30 07:40:53;;;;;;;22.83;12.33;;;10.90;78.30;;;;;;5016075;28;20177;-83
2021/03/30 07:43:29;;;;;;;26.60;10.77;;;11.10;79.10;;;;;;5033976;28;20188;-83
2021/03/30 07:46:04;;;;;;;25.17;11.57;;;11.10;78.90;;;;;;5015955;28;20690;-83
2021/03/30 07:48:33;;;;;;;24.30;9.40;;;11.20;79.60;;;;;;5033724;28;20520;-83
2021/03/30 07:51:07;;;;;;;20.20;10.83;;;11.30;77.00;;;;;;5033766;28;20263;-83
2021/03/30 07:54:06;;;;;;;19.43;11.17;;;11.30;77.70;;;;;;5033944;28;20227;-82
2021/03/30 07:56:53;;;;;;;22.40;10.97;;;11.50;78.20;;;;;;5033821;28;20201;-83
2021/03/30 07:59:49;;;;;;;28.60;11.90;;;11.50;77.70;;;;;;5014912;28;20276;-83
2021/03/30 08:02:26;;;;;;;25.23;12.50;;;11.60;78.20;;;;;;5014866;28;20409;-83
2021/03/30 08:05:09;;;;;;;20.97;10.87;;;11.70;78.30;;;;;;5033835;28;20521;-83
2021/03/30 08:07:57;;;;;;;18.67;11.03;;;11.80;77.60;;;;;;5033580;28;20165;-83
2021/03/30 08:10:34;;;;;;;12.47;9.33;;;11.80;77.50;;;;;;5033462;28;20164;-83
2021/03/30 08:13:28;;;;;;;18.53;10.13;;;12.00;77.20;;;;;;5015496;28;20208;-83
2021/03/30 08:16:07;;;;;;;23.17;10.90;;;12.10;77.60;;;;;;5015679;28;20201;-83
2021/03/30 08:18:41;;;;;;;20.50;10.03;;;12.20;77.40;;;;;;5033692;28;20180;-83
2021/03/30 08:21:19;;;;;;;17.07;9.73;;;12.20;77.70;;;;;;5015717;28;20283;-83
2021/03/30 08:24:04;;;;;;;21.73;10.00;;;12.30;78.00;;;;;;5016108;28;20564;-83
2021/03/30 08:26:36;;;;;;;20.30;10.27;;;12.40;77.10;;;;;;5033236;28;20284;-83
2021/03/30 08:29:22;;;;;;;21.70;10.23;;;12.50;76.90;;;;;;5033105;28;20177;-83
2021/03/30 08:31:58;;;;;;;19.87;9.70;;;12.50;76.40;;;;;;5033146;28;20271;-83
2021/03/30 08:34:39;;;;;;;20.87;10.20;;;12.60;76.70;;;;;;5033200;28;20191;-83
2021/03/30 08:37:17;;;;;;;23.17;10.33;;;12.70;77.20;;;;;;5015640;28;20671;-83
2021/03/30 08:39:52;;;;;;;16.40;9.63;;;12.80;76.10;;;;;;5015566;28;20176;-83
2021/03/30 08:42:32;;;;;;;20.07;9.67;;;12.90;76.60;;;;;;5033126;28;20172;-83
2021/03/30 08:45:06;;;;;;;26.20;10.57;;;13.10;76.50;;;;;;5032874;28;20208;-83
2021/03/30 08:47:46;;;;;;;16.83;9.50;;;13.00;76.10;;;;;;5033052;28;20173;-83
2021/03/30 08:50:25;;;;;;;21.43;10.17;;;13.20;76.40;;;;;;5015408;28;20176;-83
2021/03/30 08:53:00;;;;;;;16.40;9.20;;;13.30;75.90;;;;;;5032939;28;20616;-83
2021/03/30 08:55:41;;;;;;;19.73;9.87;;;13.30;75.80;;;;;;5032902;28;20192;-83
2021/03/30 08:58:18;;;;;;;23.23;9.83;;;13.40;76.50;;;;;;5032931;28;20185;-83
2021/03/30 09:00:51;;;;;;;18.07;9.53;;;13.60;76.50;;;;;;5033012;28;20173;-83
2021/03/30 09:03:29;;;;;;;19.67;10.07;;;13.60;75.10;;;;;;5033257;28;20161;-83
2021/03/30 09:06:00;;;;;;;21.20;9.67;;;13.50;75.80;;;;;;5015075;28;20212;-83
2021/03/30 09:08:42;;;;;;;22.50;10.30;;;13.70;76.30;;;;;;5015069;28;20180;-83
2021/03/30 09:11:30;;;;;;;19.10;10.03;;;13.80;75.40;;;;;;5035207;28;20645;-83
2021/03/30 09:14:00;;;;;;;20.30;10.40;;;13.90;74.80;;;;;;5019293;28;20205;-83
2021/03/30 09:16:31;;;;;;;22.50;10.67;;;14.00;75.50;;;;;;5036735;28;20277;-83
2021/03/30 09:19:30;;;;;;;19.23;9.33;;;14.00;74.70;;;;;;5036619;28;20645;-83
2021/03/30 09:22:03;;;;;;;17.67;9.60;;;14.10;74.00;;;;;;5018762;28;20182;-83
2021/03/30 09:24:50;;;;;;;16.27;9.67;;;14.20;74.00;;;;;;5018804;28;20177;-83
2021/03/30 09:27:28;;;;;;;18.60;9.77;;;14.40;74.60;;;;;;5036536;28;20185;-83
2021/03/30 09:30:04;;;;;;;20.53;9.63;;;14.60;73.90;;;;;;5036406;28;20179;-83
2021/03/30 09:32:35;;;;;;;14.23;9.20;;;14.50;73.40;;;;;;5018468;28;20680;-83
2021/03/30 09:35:07;;;;;;;15.37;9.23;;;14.80;73.80;;;;;;5018650;28;20216;-83
2021/03/30 09:37:44;;;;;;;17.13;10.27;;;14.90;73.10;;;;;;5036235;28;20168;-84
2021/03/30 09:40:17;;;;;;;22.77;9.70;;;14.90;73.10;;;;;;5019021;28;20176;-84
2021/03/30 09:42:51;;;;;;;15.47;9.10;;;15.10;73.50;;;;;;5036156;28;20192;-84
2021/03/30 09:45:34;;;;;;;20.43;9.97;;;15.20;71.60;;;;;;5035863;28;20213;-84
2021/03/30 09:48:09;;;;;;;16.83;9.07;;;15.20;72.00;;;;;;5018360;28;20180;-83
2021/03/30 09:50:51;;;;;;;17.83;9.60;;;15.20;72.10;;;;;;5036074;28;20252;-83
2021/03/30 09:53:38;;;;;;;18.20;9.47;;;15.40;72.40;;;;;;5035948;28;20284;-84
2021/03/30 09:56:20;;;;;;;20.87;11.47;;;15.50;72.10;;;;;;5035884;28;20189;-84
2021/03/30 09:59:00;;;;;;;23.77;10.60;;;15.60;71.90;;;;;;5035909;28;20628;-84
2021/03/30 10:01:34;;;;;;;26.00;11.97;;;15.80;70.00;;;;;;5018044;28;20641;-84
2021/03/30 10:04:08;;;;;;;19.37;11.70;;;15.80;69.90;;;;;;5035778;28;20267;-83
2021/03/30 10:06:38;;;;;;;19.57;9.10;;;15.70;70.50;;;;;;5017885;28;20291;-84
2021/03/30 10:09:12;;;;;;;19.40;10.00;;;15.90;71.00;;;;;;5017858;28;20183;-84
2021/03/30 10:11:46;;;;;;;20.53;10.07;;;16.00;69.70;;;;;;5017912;28;20571;-84
2021/03/30 10:14:32;;;;;;;24.93;9.67;;;16.10;69.90;;;;;;5017768;28;20235;-84
2021/03/30 10:17:08;;;;;;;18.17;9.63;;;16.30;69.60;;;;;;5035578;28;20189;-84
2021/03/30 10:19:48;;;;;;;16.07;10.27;;;16.30;69.50;;;;;;5017848;28;20177;-84
2021/03/30 10:22:31;;;;;;;14.20;9.77;;;16.30;69.70;;;;;;5016594;28;20173;-84
2021/03/30 10:25:14;;;;;;;21.27;8.57;;;16.50;69.10;;;;;;5017623;28;20224;-84
2021/03/30 10:27:57;;;;;;;15.57;9.90;;;16.60;69.10;;;;;;5035405;28;20250;-84
2021/03/30 10:30:56;;;;;;;14.68;9.15;;;16.70;68.20;;;;;;5035311;28;20555;-84
2021/03/30 10:33:48;;;;;;;19.13;9.40;;;16.50;68.50;;;;;;5035473;28;20554;-84
2021/03/30 10:36:21;;;;;;;20.00;9.82;;;16.60;68.60;;;;;;5017511;28;20200;-84
2021/03/30 10:39:07;;;;;;;13.98;8.93;;;16.70;68.30;;;;;;5017493;28;20180;-84
2021/03/30 10:41:42;;;;;;;13.25;8.20;;;16.90;68.10;;;;;;5035165;28;20215;-84
2021/03/30 10:44:21;;;;;;;13.60;8.43;;;17.10;67.20;;;;;;5034991;28;20185;-84
2021/03/30 10:47:14;;;;;;;15.05;9.05;;;17.10;66.70;;;;;;5108677;23;20226;-84
2021/03/30 10:49:47;;;;;;;16.33;8.65;;;17.00;68.50;;;;;;4995874;28;20172;-83
2021/03/30 10:52:33;;;;;;;15.98;8.88;;;17.20;67.00;;;;;;4994203;28;20717;-83
2021/03/30 10:55:12;;;;;;;16.08;8.93;;;17.30;67.00;;;;;;4994342;28;20277;-83
2021/03/30 10:57:51;;;;;;;14.23;8.55;;;17.40;65.80;;;;;;4994213;28;20570;-84
2021/03/30 11:00:21;;;;;;;16.23;8.35;;;17.30;66.90;;;;;;4995776;28;20159;-84
2021/03/30 11:02:47;;;;;;;14.35;8.32;;;17.60;65.30;;;;;;4996292;28;20708;-83
2021/03/30 11:05:17;;;;;;;15.55;8.43;;;17.70;64.90;;;;;;4996047;28;20212;-83
2021/03/30 11:07:43;;;;;;;17.42;8.73;;;17.80;63.80;;;;;;4994138;28;20202;-83
2021/03/30 11:10:11;;;;;;;14.85;8.80;;;17.90;64.30;;;;;;4995339;28;20182;-84
2021/03/30 11:12:42;;;;;;;16.80;8.18;;;18.00;63.70;;;;;;4994000;28;20288;-83
2021/03/30 11:15:09;;;;;;;12.25;8.10;;;17.90;62.70;;;;;;4995956;28;20167;-82
2021/03/30 11:17:44;;;;;;;11.75;7.45;;;17.90;64.30;;;;;;4993848;28;20296;-83
2021/03/30 11:20:15;;;;;;;14.20;7.60;;;18.00;63.60;;;;;;4995341;28;20216;-83
2021/03/30 11:22:51;;;;;;;11.52;7.28;;;17.90;62.70;;;;;;4994947;28;20205;-83
2021/03/30 11:25:24;;;;;;;15.55;7.88;;;18.10;64.00;;;;;;4993773;28;20181;-83
2021/03/30 11:28:03;;;;;;;16.48;7.97;;;18.10;62.30;;;;;;4995254;28;20201;-83
2021/03/30 11:30:44;;;;;;;20.67;8.85;;;18.40;62.60;;;;;;4994968;28;20256;-83
2021/03/30 11:33:25;;;;;;;14.65;7.50;;;18.50;62.80;;;;;;4995327;28;20194;-83
2021/03/30 11:35:59;;;;;;;12.68;7.35;;;18.60;61.10;;;;;;4995085;28;20257;-84
2021/03/30 11:38:33;;;;;;;13.23;6.72;;;18.60;61.30;;;;;;4994738;28;20165;-83
2021/03/30 11:41:09;;;;;;;13.30;7.63;;;18.70;61.60;;;;;;4994895;28;20202;-83
2021/03/30 11:43:41;;;;;;;20.38;6.65;;;19.00;62.50;;;;;;4995066;28;20180;-83
2021/03/30 11:46:20;;;;;;;13.73;7.03;;;19.10;60.20;;;;;;4994991;28;20561;-84
2021/03/30 11:48:52;;;;;;;11.30;6.72;;;19.40;59.40;;;;;;4994778;28;20251;-83
2021/03/30 11:51:27;;;;;;;14.30;6.63;;;19.30;59.30;;;;;;4994552;28;20228;-83
2021/03/30 11:54:02;;;;;;;15.75;6.63;;;19.40;59.40;;;;;;4993276;28;20690;-83
2021/03/30 11:56:35;;;;;;;8.73;5.45;;;19.50;57.60;;;;;;4993172;28;20197;-83
2021/03/30 11:59:05;;;;;;;12.02;6.65;;;19.50;59.40;;;;;;4993190;28;20710;-82
2021/03/30 12:01:38;;;;;;;10.82;7.00;;;19.60;57.70;;;;;;4993248;28;20642;-83
2021/03/30 12:04:09;;;;;;;11.35;6.78;;;19.80;58.40;;;;;;4994337;28;20197;-83
2021/03/30 12:06:42;;;;;;;8.73;6.15;;;19.90;57.80;;;;;;4993100;28;20205;-83
2021/03/30 12:09:14;;;;;;;10.13;5.53;;;19.70;56.90;;;;;;4994346;28;20228;-84
2021/03/30 12:11:49;;;;;;;12.63;6.43;;;19.90;56.30;;;;;;4994472;28;20178;-83
2021/03/30 12:14:23;;;;;;;11.82;5.95;;;19.70;55.40;;;;;;4994372;28;20636;-83
2021/03/30 12:16:54;;;;;;;8.52;5.70;;;19.90;57.40;;;;;;4994173;28;20220;-83
2021/03/30 12:19:20;;;;;;;9.50;5.95;;;20.20;57.70;;;;;;4994083;28;20252;-83
2021/03/30 12:21:54;;;;;;;7.30;4.85;;;20.20;55.10;;;;;;4992933;28;20256;-83
2021/03/30 12:24:28;;;;;;;11.75;4.90;;;20.40;54.60;;;;;;4992765;28;20265;-83
2021/03/30 12:27:00;;;;;;;9.63;4.80;;;20.30;53.60;;;;;;4994349;28;20225;-83
2021/03/30 12:29:34;;;;;;;6.63;4.30;;;20.30;52.70;;;;;;4994270;28;20261;-83
2021/03/30 12:32:06;;;;;;;9.73;4.57;;;20.70;52.70;;;;;;4993972;28;20178;-83
2021/03/30 12:34:39;;;;;;;7.10;3.70;;;20.50;52.50;;;;;;4992603;28;20257;-83
2021/03/30 12:37:13;;;;;;;8.45;4.05;;;20.70;52.40;;;;;;4993891;28;20257;-83
2021/03/30 12:39:44;;;;;;;5.43;3.50;;;20.90;52.40;;;;;;4992661;28;20210;-83
2021/03/30 12:42:17;;;;;;;8.13;3.85;;;21.10;49.90;;;;;;4993938;28;20201;-82
2021/03/30 12:44:53;;;;;;;6.10;3.88;;;21.00;48.20;;;;;;4994188;28;20170;-83
2021/03/30 12:47:25;;;;;;;9.05;3.80;;;20.90;50.10;;;;;;4998000;28;20234;-83
2021/03/30 12:49:57;;;;;;;8.52;3.97;;;21.00;48.30;;;;;;4997909;28;20170;-83
2021/03/30 12:52:34;;;;;;;4.72;3.17;;;20.70;48.00;;;;;;4997730;28;20634;-82
2021/03/30 12:55:10;;;;;;;8.38;4.68;;;20.90;49.80;;;;;;4997129;28;20555;-82
2021/03/30 12:57:44;;;;;;;8.68;4.22;;;20.70;49.30;;;;;;4998078;28;20194;-82
2021/03/30 13:00:20;;;;;;;7.25;3.55;;;20.60;48.60;;;;;;4997920;28;20170;-83
2021/03/30 13:02:54;;;;;;;8.80;4.15;;;20.60;49.60;;;;;;4997782;28;20253;-83
2021/03/30 13:05:27;;;;;;;7.70;4.45;;;20.90;50.40;;;;;;4997667;28;20183;-83
2021/03/30 13:08:06;;;;;;;5.63;3.53;;;21.20;46.70;;;;;;4997663;28;20193;-83
2021/03/30 13:10:38;;;;;;;7.95;3.95;;;21.30;48.00;;;;;;4997699;28;20185;-83
2021/03/30 13:13:08;;;;;;;5.32;3.22;;;21.40;45.30;;;;;;4997747;28;20205;-83
2021/03/30 13:15:42;;;;;;;7.25;4.10;;;21.40;47.20;;;;;;4997444;28;20178;-83
2021/03/30 13:18:17;;;;;;;6.55;3.45;;;21.60;45.40;;;;;;4996079;28;20201;-83
2021/03/30 13:20:50;;;;;;;8.05;3.95;;;21.50;45.60;;;;;;4996284;28;20272;-83
2021/03/30 13:23:18;;;;;;;7.70;4.18;;;21.70;44.80;;;;;;4997527;28;20178;-83
2021/03/30 13:25:54;;;;;;;10.27;4.55;;;21.60;45.30;;;;;;4997711;28;20178;-83